createdAt,value
2018-11-27T00:01:42.979Z,65.10
2018-11-27T00:03:45.894Z,65.10
2018-11-27T00:05:50.436Z,65.10
2018-11-27T00:07:54.687Z,65.10
2018-11-27T00:09:57.819Z,64.90
2018-11-27T00:12:00.921Z,64.90
2018-11-27T00:14:04.597Z,64.90
2018-11-27T00:16:09.074Z,64.80
2018-11-27T00:18:12.003Z,64.70
2018-11-27T00:20:14.938Z,64.80
2018-11-27T00:22:17.887Z,64.70
2018-11-27T00:24:21.564Z,64.60
2018-11-27T00:26:25.388Z,65.30
2018-11-27T00:28:29.090Z,64.50
2018-11-27T00:30:32.891Z,64.50
2018-11-27T00:32:36.694Z,64.40
2018-11-27T00:34:40.391Z,64.30
2018-11-27T00:36:43.347Z,64.30
2018-11-27T00:38:46.275Z,64.30
2018-11-27T00:40:49.191Z,64.40
2018-11-27T00:42:52.134Z,64.40
2018-11-27T00:44:55.046Z,64.40
2018-11-27T00:46:57.979Z,64.30
2018-11-27T00:49:01.657Z,64.20
2018-11-27T00:51:04.566Z,64.10
2018-11-27T00:53:08.365Z,64.30
2018-11-27T00:55:11.344Z,64.20
2018-11-27T00:57:15.073Z,64.20
2018-11-27T00:59:17.999Z,64.20
2018-11-27T01:01:20.919Z,64.20
2018-11-27T01:03:23.861Z,64.20
2018-11-27T01:05:26.877Z,64.20
2018-11-27T01:07:30.681Z,64.20
2018-11-27T01:09:34.383Z,64.10
2018-11-27T01:11:38.057Z,64.10
2018-11-27T01:13:41.009Z,64.00
2018-11-27T01:15:43.917Z,63.90
2018-11-27T01:17:46.866Z,63.80
2018-11-27T01:19:49.912Z,63.90
2018-11-27T01:21:53.595Z,64.00
2018-11-27T01:23:57.412Z,63.90
2018-11-27T01:26:01.215Z,63.90
2018-11-27T01:28:04.211Z,63.90
2018-11-27T01:30:07.121Z,63.80
2018-11-27T01:32:10.184Z,63.70
2018-11-27T01:34:13.146Z,63.70
2018-11-27T01:36:16.823Z,63.70
2018-11-27T01:38:19.759Z,63.60
2018-11-27T01:40:23.506Z,63.70
2018-11-27T01:42:27.202Z,63.70
2018-11-27T01:44:30.148Z,63.60
2018-11-27T01:46:33.059Z,63.60
2018-11-27T01:48:36.017Z,63.70
2018-11-27T01:50:38.925Z,63.70
2018-11-27T01:52:41.843Z,63.80
2018-11-27T01:54:44.790Z,63.80
2018-11-27T01:56:47.717Z,63.70
2018-11-27T01:58:50.654Z,63.70
2018-11-27T02:00:53.666Z,63.70
2018-11-27T02:02:57.363Z,63.70
2018-11-27T02:05:01.170Z,63.70
2018-11-27T02:07:04.889Z,63.60
2018-11-27T02:09:08.912Z,63.70
2018-11-27T02:11:11.811Z,63.70
2018-11-27T02:13:14.747Z,63.70
2018-11-27T02:15:17.698Z,63.70
2018-11-27T02:17:20.618Z,63.70
2018-11-27T02:19:24.397Z,63.70
2018-11-27T02:21:28.080Z,63.60
2018-11-27T02:23:31.785Z,63.60
2018-11-27T02:25:35.506Z,63.60
2018-11-27T02:27:39.170Z,63.60
2018-11-27T02:29:42.143Z,63.50
2018-11-27T02:31:45.034Z,63.60
2018-11-27T02:33:47.955Z,63.70
2018-11-27T02:35:50.901Z,63.70
2018-11-27T02:37:53.816Z,63.80
2018-11-27T02:39:57.618Z,63.80
2018-11-27T02:42:01.297Z,63.70
2018-11-27T02:44:05.718Z,63.70
2018-11-27T02:46:09.535Z,63.70
2018-11-27T02:48:13.218Z,63.80
2018-11-27T02:50:16.898Z,63.80
2018-11-27T02:52:19.846Z,63.80
2018-11-27T02:54:22.771Z,63.80
2018-11-27T02:56:25.679Z,63.80
2018-11-27T02:58:28.676Z,63.80
2018-11-27T03:00:32.367Z,63.80
2018-11-27T03:02:36.165Z,63.90
2018-11-27T03:04:39.893Z,63.90
2018-11-27T03:06:42.819Z,63.90
2018-11-27T03:08:45.743Z,63.70
2018-11-27T03:10:48.845Z,63.90
2018-11-27T03:12:51.770Z,63.90
2018-11-27T03:14:54.751Z,63.80
2018-11-27T03:16:57.679Z,63.80
2018-11-27T03:19:00.596Z,63.80
2018-11-27T03:21:03.560Z,63.70
2018-11-27T03:23:06.506Z,63.70
2018-11-27T03:25:10.186Z,63.80
2018-11-27T03:27:13.907Z,63.30
2018-11-27T03:29:17.585Z,64.50
2018-11-27T03:31:20.496Z,63.60
2018-11-27T03:33:23.505Z,63.60
2018-11-27T03:35:26.428Z,63.60
2018-11-27T03:37:29.437Z,63.60
2018-11-27T03:39:33.269Z,63.60
2018-11-27T03:41:36.277Z,63.60
2018-11-27T03:43:39.310Z,63.60
2018-11-27T03:45:42.276Z,63.70
2018-11-27T03:47:45.206Z,63.80
2018-11-27T03:49:48.840Z,63.90
2018-11-27T03:51:51.859Z,63.90
2018-11-27T03:53:55.556Z,63.90
2018-11-27T03:55:59.272Z,63.90
2018-11-27T03:58:02.196Z,63.90
2018-11-27T04:00:05.222Z,63.80
2018-11-27T04:02:08.939Z,63.90
2018-11-27T04:04:11.860Z,63.80
2018-11-27T04:06:14.890Z,63.80
2018-11-27T04:08:18.623Z,63.70
2018-11-27T04:10:21.556Z,64.40
2018-11-27T04:12:25.255Z,63.30
2018-11-27T04:14:28.228Z,63.70
2018-11-27T04:16:31.160Z,63.80
2018-11-27T04:18:34.086Z,63.70
2018-11-27T04:20:37.095Z,63.70
2018-11-27T04:22:40.780Z,63.80
2018-11-27T04:24:43.707Z,63.80
2018-11-27T04:26:47.691Z,63.70
2018-11-27T04:28:51.378Z,63.80
2018-11-27T04:30:55.533Z,63.80
2018-11-27T04:32:58.455Z,63.80
2018-11-27T04:35:01.532Z,63.90
2018-11-27T04:37:04.477Z,63.90
2018-11-27T04:39:07.398Z,64.00
2018-11-27T04:41:11.446Z,64.00
2018-11-27T04:43:15.167Z,63.80
2018-11-27T04:45:18.097Z,63.80
2018-11-27T04:47:22.643Z,64.00
2018-11-27T04:49:26.365Z,64.00
2018-11-27T04:51:29.284Z,64.00
2018-11-27T04:53:32.187Z,64.10
2018-11-27T04:55:35.144Z,64.20
2018-11-27T04:57:38.084Z,63.70
2018-11-27T04:59:41.007Z,64.30
2018-11-27T05:01:44.135Z,64.40
2018-11-27T05:03:47.068Z,64.30
2018-11-27T05:05:49.983Z,64.30
2018-11-27T05:07:52.947Z,64.40
2018-11-27T05:09:55.967Z,64.40
2018-11-27T05:11:59.771Z,64.40
2018-11-27T05:14:03.492Z,64.30
2018-11-27T05:16:06.419Z,64.30
2018-11-27T05:18:09.364Z,64.20
2018-11-27T05:20:12.298Z,64.20
2018-11-27T05:22:15.984Z,64.20
2018-11-27T05:24:20.460Z,64.10
2018-11-27T05:26:23.518Z,64.10
2018-11-27T05:28:27.214Z,64.20
2018-11-27T05:30:30.947Z,64.20
2018-11-27T05:32:33.863Z,64.20
2018-11-27T05:34:36.883Z,64.20
2018-11-27T05:36:39.985Z,64.20
2018-11-27T05:38:42.950Z,64.20
2018-11-27T05:40:45.875Z,64.20
2018-11-27T05:42:48.836Z,64.30
2018-11-27T05:44:51.901Z,64.20
2018-11-27T05:46:55.703Z,64.30
2018-11-27T05:48:59.503Z,64.30
2018-11-27T05:51:03.283Z,64.70
2018-11-27T05:53:07.960Z,64.40
2018-11-27T05:55:10.882Z,64.30
2018-11-27T05:57:13.807Z,64.30
2018-11-27T05:59:16.876Z,64.20
2018-11-27T06:01:20.678Z,64.40
2018-11-27T06:03:23.612Z,64.30
2018-11-27T06:05:26.576Z,64.20
2018-11-27T06:07:35.141Z,64.30
2018-11-27T06:09:38.071Z,64.40
2018-11-27T06:11:41.125Z,64.50
2018-11-27T06:13:45.549Z,64.50
2018-11-27T06:15:49.632Z,64.50
2018-11-27T06:17:52.567Z,64.50
2018-11-27T06:19:55.988Z,64.40
2018-11-27T06:21:58.944Z,64.40
2018-11-27T06:24:01.993Z,64.40
2018-11-27T06:26:04.978Z,64.50
2018-11-27T06:28:08.696Z,64.60
2018-11-27T06:30:11.658Z,64.60
2018-11-27T06:32:15.364Z,64.60
2018-11-27T06:34:19.081Z,64.60
2018-11-27T06:36:22.000Z,64.50
2018-11-27T06:38:25.022Z,64.60
2018-11-27T06:40:28.110Z,64.60
2018-11-27T06:42:31.819Z,64.70
2018-11-27T06:44:34.750Z,64.70
2018-11-27T06:46:37.773Z,64.70
2018-11-27T06:48:41.462Z,64.80
2018-11-27T06:50:45.326Z,64.80
2018-11-27T06:52:48.378Z,64.70
2018-11-27T06:54:51.318Z,64.70
2018-11-27T06:56:54.428Z,64.70
2018-11-27T06:58:58.144Z,64.70
2018-11-27T07:01:01.074Z,64.70
2018-11-27T07:03:04.055Z,64.70
2018-11-27T07:05:07.056Z,64.70
2018-11-27T07:07:09.989Z,64.60
2018-11-27T07:09:12.953Z,64.70
2018-11-27T07:11:16.027Z,64.80
2018-11-27T07:13:19.033Z,64.80
2018-11-27T07:15:22.096Z,64.70
2018-11-27T07:17:25.795Z,64.70
2018-11-27T07:19:29.512Z,64.80
2018-11-27T07:21:32.440Z,64.70
2018-11-27T07:23:35.404Z,64.70
2018-11-27T07:25:38.445Z,64.60
2018-11-27T07:27:42.141Z,64.70
2018-11-27T07:29:46.044Z,64.60
2018-11-27T07:31:49.852Z,64.60
2018-11-27T07:33:53.654Z,64.50
2018-11-27T07:35:57.351Z,64.50
2018-11-27T07:38:01.029Z,64.50
2018-11-27T07:40:03.951Z,64.40
2018-11-27T07:42:07.021Z,64.40
2018-11-27T07:44:10.807Z,64.40
2018-11-27T07:46:14.514Z,64.40
2018-11-27T07:48:18.426Z,64.40
2018-11-27T07:50:22.231Z,64.30
2018-11-27T07:52:25.930Z,64.30
2018-11-27T07:54:29.644Z,64.40
2018-11-27T07:56:32.580Z,64.30
2018-11-27T07:58:36.311Z,64.70
2018-11-27T08:00:40.029Z,64.30
2018-11-27T08:02:42.962Z,64.20
2018-11-27T08:04:45.888Z,64.10
2018-11-27T08:06:48.845Z,64.00
2018-11-27T08:08:51.771Z,64.00
2018-11-27T08:10:54.722Z,64.00
2018-11-27T08:12:58.629Z,63.90
2018-11-27T08:15:02.429Z,63.90
2018-11-27T08:17:06.456Z,63.80
2018-11-27T08:19:09.418Z,63.80
2018-11-27T08:21:12.503Z,63.70
2018-11-27T08:23:16.224Z,63.70
2018-11-27T08:25:19.143Z,63.60
2018-11-27T08:27:22.107Z,63.60
2018-11-27T08:29:25.165Z,63.50
2018-11-27T08:31:28.955Z,63.50
2018-11-27T08:33:32.643Z,63.40
2018-11-27T08:35:37.192Z,63.20
2018-11-27T08:37:40.816Z,63.20
2018-11-27T08:39:43.763Z,63.20
2018-11-27T08:41:46.739Z,63.20
2018-11-27T08:43:50.542Z,63.10
2018-11-27T08:45:54.306Z,63.10
2018-11-27T08:47:57.256Z,63.00
2018-11-27T08:50:00.171Z,63.10
2018-11-27T08:52:04.744Z,63.10
2018-11-27T08:54:07.677Z,63.00
2018-11-27T08:56:10.609Z,62.90
2018-11-27T08:58:13.779Z,63.00
2018-11-27T09:00:17.578Z,63.20
2018-11-27T09:02:21.290Z,63.10
2018-11-27T09:04:24.380Z,63.00
2018-11-27T09:06:27.347Z,63.10
2018-11-27T09:08:30.330Z,63.10
2018-11-27T09:10:34.060Z,63.10
2018-11-27T09:12:37.008Z,63.10
2018-11-27T09:14:40.815Z,63.10
2018-11-27T09:16:44.554Z,63.70
2018-11-27T09:18:47.520Z,62.90
2018-11-27T09:20:50.583Z,62.80
2018-11-27T09:22:54.386Z,62.80
2018-11-27T09:24:58.104Z,62.60
2018-11-27T09:27:01.069Z,62.60
2018-11-27T09:29:04.015Z,62.60
2018-11-27T09:31:06.984Z,62.60
2018-11-27T09:33:09.912Z,62.70
2018-11-27T09:35:13.596Z,62.60
2018-11-27T09:37:18.047Z,62.60
2018-11-27T09:39:20.988Z,62.60
2018-11-27T09:41:24.005Z,62.50
2018-11-27T09:43:27.716Z,62.30
2018-11-27T09:45:30.654Z,62.30
2018-11-27T09:47:33.767Z,62.30
2018-11-27T09:49:37.605Z,62.30
2018-11-27T09:51:40.537Z,62.20
2018-11-27T09:53:44.271Z,62.50
2018-11-27T09:55:48.715Z,62.40
2018-11-27T09:57:51.649Z,62.40
2018-11-27T09:59:55.455Z,62.40
2018-11-27T10:01:59.175Z,62.40
2018-11-27T10:04:02.121Z,62.30
2018-11-27T10:06:05.817Z,62.10
2018-11-27T10:08:08.772Z,62.10
2018-11-27T10:10:11.721Z,62.00
2018-11-27T10:12:14.669Z,61.90
2018-11-27T10:14:18.488Z,61.90
2018-11-27T10:16:22.289Z,61.80
2018-11-27T10:18:26.212Z,61.70
2018-11-27T10:20:29.163Z,61.60
2018-11-27T10:22:32.877Z,61.70
2018-11-27T10:24:36.616Z,61.70
2018-11-27T10:26:39.537Z,61.70
2018-11-27T10:28:42.463Z,61.60
2018-11-27T10:30:45.404Z,61.50
2018-11-27T10:32:49.131Z,61.30
2018-11-27T10:34:52.822Z,61.40
2018-11-27T10:36:55.848Z,61.40
2018-11-27T10:39:00.978Z,61.40
2018-11-27T10:41:01.764Z,61.50
2018-11-27T10:43:05.489Z,61.90
2018-11-27T10:45:08.440Z,61.90
2018-11-27T10:47:12.926Z,61.70
2018-11-27T10:49:15.958Z,61.70
2018-11-27T10:51:19.649Z,61.60
2018-11-27T10:53:23.462Z,61.50
2018-11-27T10:55:27.197Z,61.40
2018-11-27T10:57:30.145Z,61.30
2018-11-27T10:59:34.702Z,61.50
2018-11-27T11:01:37.752Z,61.40
2018-11-27T11:03:41.457Z,61.30
2018-11-27T11:05:44.574Z,61.20
2018-11-27T11:07:47.515Z,61.20
2018-11-27T11:09:51.218Z,61.30
2018-11-27T11:11:59.217Z,61.20
2018-11-27T11:13:57.897Z,61.10
2018-11-27T11:16:01.700Z,61.20
2018-11-27T11:18:05.502Z,61.30
2018-11-27T11:20:09.197Z,61.40
2018-11-27T11:22:12.936Z,61.40
2018-11-27T11:24:15.869Z,61.30
2018-11-27T11:26:18.791Z,61.30
2018-11-27T11:28:21.749Z,61.30
2018-11-27T11:30:24.664Z,61.30
2018-11-27T11:32:27.592Z,61.30
2018-11-27T11:34:31.671Z,61.30
2018-11-27T11:36:34.616Z,61.30
2018-11-27T11:38:37.816Z,61.20
2018-11-27T11:40:40.760Z,61.30
2018-11-27T11:42:43.692Z,61.20
2018-11-27T11:44:46.746Z,61.10
2018-11-27T11:46:50.465Z,61.20
2018-11-27T11:48:53.450Z,61.10
2018-11-27T11:50:56.410Z,61.10
2018-11-27T11:53:00.215Z,61.20
2018-11-27T11:55:04.018Z,61.10
2018-11-27T11:57:08.122Z,61.10
2018-11-27T11:59:11.820Z,61.10
2018-11-27T12:01:15.548Z,61.00
2018-11-27T12:03:18.472Z,61.00
2018-11-27T12:05:25.104Z,60.90
2018-11-27T12:07:24.485Z,60.90
2018-11-27T12:09:27.429Z,61.10
2018-11-27T12:11:31.132Z,61.30
2018-11-27T12:13:34.956Z,62.40
2018-11-27T12:15:37.965Z,61.50
2018-11-27T12:17:40.893Z,61.80
2018-11-27T12:19:43.888Z,61.90
2018-11-27T12:21:47.584Z,61.90
2018-11-27T12:23:51.408Z,61.60
2018-11-27T12:25:54.410Z,61.50
2018-11-27T12:27:57.327Z,61.50
2018-11-27T12:30:00.251Z,61.30
2018-11-27T12:32:03.400Z,61.30
2018-11-27T12:34:06.424Z,61.30
2018-11-27T12:36:10.144Z,61.30
2018-11-27T12:38:13.207Z,61.20
2018-11-27T12:40:16.959Z,61.30
2018-11-27T12:42:19.998Z,61.30
2018-11-27T12:44:24.364Z,61.30
2018-11-27T12:46:27.394Z,61.20
2018-11-27T12:48:31.092Z,61.40
2018-11-27T12:50:34.826Z,61.50
2018-11-27T12:52:37.755Z,61.40
2018-11-27T12:54:40.748Z,61.60
2018-11-27T12:56:44.480Z,62.00
2018-11-27T12:58:47.432Z,62.00
2018-11-27T13:00:51.267Z,62.30
2018-11-27T13:02:54.196Z,62.20
2018-11-27T13:04:57.132Z,62.30
2018-11-27T13:07:00.216Z,62.40
2018-11-27T13:09:03.187Z,62.50
2018-11-27T13:11:11.369Z,62.60
2018-11-27T13:13:09.273Z,62.60
2018-11-27T13:15:12.208Z,62.70
2018-11-27T13:17:16.656Z,62.80
2018-11-27T13:19:19.636Z,62.80
2018-11-27T13:21:22.569Z,63.00
2018-11-27T13:23:25.535Z,63.20
2018-11-27T13:25:28.468Z,63.20
2018-11-27T13:27:32.173Z,63.20
2018-11-27T13:29:35.159Z,63.20
2018-11-27T13:31:38.854Z,63.50
2018-11-27T13:33:42.557Z,63.60
2018-11-27T13:35:46.290Z,63.70
2018-11-27T13:37:50.074Z,63.80
2018-11-27T13:39:52.995Z,63.70
2018-11-27T13:41:55.984Z,63.80
2018-11-27T13:43:59.970Z,63.80
2018-11-27T13:46:01.997Z,63.80
2018-11-27T13:48:05.076Z,63.80
2018-11-27T13:50:08.043Z,63.80
2018-11-27T13:52:11.861Z,64.00
2018-11-27T13:54:15.663Z,64.10
2018-11-27T13:56:18.607Z,64.00
2018-11-27T13:58:21.756Z,64.00
2018-11-27T14:00:24.695Z,64.00
2018-11-27T14:02:28.299Z,64.20
2018-11-27T14:04:32.230Z,64.40
2018-11-27T14:06:35.162Z,64.30
2018-11-27T14:08:38.103Z,64.40
2018-11-27T14:10:41.183Z,64.50
2018-11-27T14:12:44.116Z,64.60
2018-11-27T14:14:47.100Z,64.60
2018-11-27T14:16:50.527Z,65.20
2018-11-27T14:18:53.469Z,65.50
2018-11-27T14:20:56.432Z,65.40
2018-11-27T14:22:59.371Z,65.40
2018-11-27T14:25:02.394Z,65.50
2018-11-27T14:27:05.362Z,65.60
2018-11-27T14:29:08.288Z,65.50
2018-11-27T14:31:11.241Z,65.50
2018-11-27T14:33:14.236Z,65.50
2018-11-27T14:35:17.173Z,65.40
2018-11-27T14:37:20.104Z,65.30
2018-11-27T14:39:23.218Z,65.50
2018-11-27T14:41:26.908Z,65.70
2018-11-27T14:43:29.855Z,65.70
2018-11-27T14:45:32.832Z,65.90
2018-11-27T14:47:35.761Z,65.80
2018-11-27T14:49:38.893Z,65.70
2018-11-27T14:51:41.857Z,65.70
2018-11-27T14:53:44.789Z,65.70
2018-11-27T14:55:47.749Z,65.70
2018-11-27T14:57:50.800Z,65.90
2018-11-27T14:59:53.760Z,66.00
2018-11-27T15:01:56.727Z,66.00
2018-11-27T15:03:59.748Z,66.10
2018-11-27T15:06:03.555Z,66.30
2018-11-27T15:08:06.516Z,66.20
2018-11-27T15:10:09.439Z,66.10
2018-11-27T15:12:12.425Z,66.20
2018-11-27T15:14:15.384Z,66.20
2018-11-27T15:16:18.878Z,66.30
2018-11-27T15:18:22.718Z,66.30
2018-11-27T15:20:24.947Z,66.20
2018-11-27T15:22:28.749Z,66.50
2018-11-27T15:24:32.464Z,66.50
2018-11-27T15:26:35.433Z,66.40
2018-11-27T15:28:38.373Z,66.60
2018-11-27T15:30:41.340Z,66.60
2018-11-27T15:32:44.272Z,66.60
2018-11-27T15:34:48.079Z,66.70
2018-11-27T15:36:51.804Z,66.80
2018-11-27T15:38:54.762Z,66.80
2018-11-27T15:40:58.564Z,66.90
2018-11-27T15:43:02.365Z,66.90
2018-11-27T15:45:05.314Z,66.80
2018-11-27T15:47:08.263Z,66.90
2018-11-27T15:49:11.215Z,67.00
2018-11-27T15:51:14.919Z,67.20
2018-11-27T15:53:17.881Z,67.10
2018-11-27T15:55:21.670Z,67.10
2018-11-27T15:57:24.683Z,67.00
2018-11-27T15:59:28.488Z,67.00
2018-11-27T16:01:32.286Z,67.00
2018-11-27T16:03:35.232Z,67.00
2018-11-27T16:05:38.171Z,67.00
2018-11-27T16:07:41.135Z,67.10
2018-11-27T16:09:44.838Z,68.00
2018-11-27T16:11:48.573Z,67.30
2018-11-27T16:13:55.399Z,67.30
2018-11-27T16:15:55.319Z,67.30
2018-11-27T16:17:59.039Z,67.20
2018-11-27T16:20:01.976Z,67.20
2018-11-27T16:22:04.983Z,67.20
2018-11-27T16:24:08.719Z,67.40
2018-11-27T16:26:11.651Z,67.30
2018-11-27T16:28:15.345Z,67.30
2018-11-27T16:30:19.193Z,67.30
2018-11-27T16:32:22.107Z,67.30
2018-11-27T16:34:25.045Z,67.20
2018-11-27T16:36:28.120Z,67.30
2018-11-27T16:38:31.807Z,67.40
2018-11-27T16:40:35.514Z,67.40
2018-11-27T16:42:38.549Z,67.20
2018-11-27T16:44:41.505Z,67.30
2018-11-27T16:46:44.569Z,67.30
2018-11-27T16:48:48.280Z,67.50
2018-11-27T16:50:51.978Z,67.40
2018-11-27T16:52:55.569Z,67.30
2018-11-27T16:54:59.370Z,67.60
2018-11-27T16:57:03.071Z,67.70
2018-11-27T16:59:06.800Z,67.70
2018-11-27T17:01:09.727Z,67.70
2018-11-27T17:03:14.485Z,67.60
2018-11-27T17:05:18.300Z,67.70
2018-11-27T17:07:21.219Z,67.60
2018-11-27T17:09:24.163Z,67.60
2018-11-27T17:11:27.370Z,67.60
2018-11-27T17:13:30.419Z,67.70
2018-11-27T17:15:34.222Z,67.80
2018-11-27T17:17:38.169Z,67.90
2018-11-27T17:19:41.211Z,67.90
2018-11-27T17:21:44.947Z,68.20
2018-11-27T17:23:48.806Z,68.20
2018-11-27T17:25:52.496Z,68.40
2018-11-27T17:27:56.417Z,68.50
2018-11-27T17:30:00.220Z,68.50
2018-11-27T17:32:03.920Z,68.50
2018-11-27T17:34:07.744Z,68.60
2018-11-27T17:36:10.706Z,68.60
2018-11-27T17:38:14.507Z,68.60
2018-11-27T17:40:18.229Z,68.60
2018-11-27T17:42:21.162Z,68.60
2018-11-27T17:44:24.121Z,68.50
2018-11-27T17:46:27.145Z,68.60
2018-11-27T17:48:30.082Z,68.70
2018-11-27T17:50:33.064Z,68.70
2018-11-27T17:52:36.002Z,68.70
2018-11-27T17:54:38.922Z,68.70
2018-11-27T17:56:41.893Z,68.80
2018-11-27T17:58:44.837Z,68.80
2018-11-27T18:00:48.552Z,69.10
2018-11-27T18:02:53.116Z,69.10
2018-11-27T18:04:56.053Z,69.10
2018-11-27T18:06:59.857Z,69.00
2018-11-27T18:09:02.843Z,69.00
2018-11-27T18:11:06.640Z,69.00
2018-11-27T18:13:10.340Z,69.00
2018-11-27T18:15:14.061Z,69.00
2018-11-27T18:17:16.995Z,68.90
2018-11-27T18:19:19.973Z,68.90
2018-11-27T18:21:22.905Z,69.00
2018-11-27T18:23:25.835Z,69.00
2018-11-27T18:25:28.971Z,69.10
2018-11-27T18:27:31.924Z,69.10
2018-11-27T18:29:35.616Z,69.10
2018-11-27T18:31:39.439Z,68.50
2018-11-27T18:33:43.242Z,69.30
2018-11-27T18:35:47.043Z,69.30
2018-11-27T18:37:50.780Z,69.30
2018-11-27T18:39:54.560Z,69.30
2018-11-27T18:41:57.488Z,69.20
2018-11-27T18:44:00.636Z,69.30
2018-11-27T18:46:03.559Z,69.20
2018-11-27T18:48:06.581Z,69.30
2018-11-27T18:50:10.329Z,70.10
2018-11-27T18:52:13.365Z,69.20
2018-11-27T18:54:17.193Z,69.40
2018-11-27T18:56:20.136Z,69.40
2018-11-27T18:58:23.856Z,69.50
2018-11-27T19:00:27.604Z,69.40
2018-11-27T19:02:31.812Z,69.30
2018-11-27T19:04:33.499Z,69.40
2018-11-27T19:06:37.228Z,69.50
2018-11-27T19:08:40.159Z,69.30
2018-11-27T19:10:43.372Z,69.40
2018-11-27T19:12:46.121Z,69.30
2018-11-27T19:14:49.149Z,69.30
2018-11-27T19:16:52.950Z,69.20
2018-11-27T19:18:56.676Z,69.20
2018-11-27T19:20:59.595Z,69.20
2018-11-27T19:23:03.151Z,69.10
2018-11-27T19:25:06.958Z,69.30
2018-11-27T19:27:09.887Z,69.20
2018-11-27T19:29:12.825Z,69.10
2018-11-27T19:31:15.803Z,69.10
2018-11-27T19:33:18.727Z,69.20
2018-11-27T19:35:25.156Z,69.20
2018-11-27T19:37:24.655Z,69.30
2018-11-27T19:39:27.606Z,69.30
2018-11-27T19:41:31.323Z,69.50
2018-11-27T19:43:34.349Z,69.40
2018-11-27T19:45:37.251Z,69.50
2018-11-27T19:47:41.853Z,69.60
2018-11-27T19:49:44.792Z,69.60
2018-11-27T19:51:47.722Z,69.60
2018-11-27T19:53:50.676Z,69.60
2018-11-27T19:55:53.633Z,69.60
2018-11-27T19:57:56.568Z,69.60
2018-11-27T19:59:59.758Z,69.50
2018-11-27T20:02:02.714Z,69.50
2018-11-27T20:04:05.635Z,69.50
2018-11-27T20:06:08.586Z,69.50
2018-11-27T20:08:11.520Z,69.50
2018-11-27T20:10:14.609Z,69.50
2018-11-27T20:12:18.321Z,69.60
2018-11-27T20:14:21.255Z,69.50
2018-11-27T20:16:24.421Z,69.50
2018-11-27T20:18:27.357Z,69.50
2018-11-27T20:20:31.035Z,69.60
2018-11-27T20:22:34.004Z,69.50
2018-11-27T20:24:37.027Z,69.50
2018-11-27T20:26:40.826Z,69.50
2018-11-27T20:28:44.572Z,69.50
2018-11-27T20:30:47.500Z,69.50
2018-11-27T20:32:51.183Z,70.00
2018-11-27T20:34:54.166Z,69.40
2018-11-27T20:36:57.117Z,69.30
2018-11-27T20:39:00.740Z,69.30
2018-11-27T20:41:03.141Z,69.30
2018-11-27T20:43:06.943Z,69.40
2018-11-27T20:45:10.628Z,69.40
2018-11-27T20:47:14.371Z,69.30
2018-11-27T20:49:17.345Z,69.10
2018-11-27T20:51:20.464Z,69.30
2018-11-27T20:53:23.513Z,69.10
2018-11-27T20:55:26.582Z,69.10
2018-11-27T20:57:29.565Z,69.10
2018-11-27T20:59:33.276Z,69.10
2018-11-27T21:01:36.218Z,69.00
2018-11-27T21:03:39.155Z,68.90
2018-11-27T21:05:42.088Z,68.80
2018-11-27T21:07:45.030Z,68.70
2018-11-27T21:09:48.016Z,68.50
2018-11-27T21:11:50.954Z,68.40
2018-11-27T21:13:54.761Z,68.30
2018-11-27T21:15:58.492Z,68.10
2018-11-27T21:18:01.444Z,67.90
2018-11-27T21:20:05.258Z,67.50
2018-11-27T21:22:08.331Z,67.50
2018-11-27T21:24:12.029Z,66.90
2018-11-27T21:26:15.749Z,66.60
2018-11-27T21:28:18.679Z,66.60
2018-11-27T21:30:21.612Z,66.40
2018-11-27T21:32:25.432Z,66.10
2018-11-27T21:34:28.388Z,66.00
2018-11-27T21:36:32.115Z,65.80
2018-11-27T21:38:35.052Z,65.60
2018-11-27T21:40:38.731Z,64.90
2018-11-27T21:42:42.696Z,65.40
2018-11-27T21:44:45.637Z,65.40
2018-11-27T21:46:49.326Z,65.60
2018-11-27T21:48:52.276Z,65.00
2018-11-27T21:50:55.201Z,65.00
2018-11-27T21:52:58.956Z,65.00
2018-11-27T21:55:02.239Z,64.90
2018-11-27T21:57:05.290Z,65.00
2018-11-27T21:59:08.989Z,65.30
2018-11-27T22:01:12.716Z,65.50
2018-11-27T22:03:15.643Z,65.30
2018-11-27T22:05:18.586Z,65.60
2018-11-27T22:07:21.639Z,65.70
2018-11-27T22:09:25.441Z,66.00
2018-11-27T22:11:29.161Z,66.10
2018-11-27T22:13:32.084Z,66.10
2018-11-27T22:15:35.107Z,66.10
2018-11-27T22:17:38.316Z,66.30
2018-11-27T22:19:41.250Z,66.30
2018-11-27T22:21:44.177Z,66.50
2018-11-27T22:23:47.244Z,66.70
2018-11-27T22:25:50.951Z,67.00
2018-11-27T22:27:54.666Z,67.10
2018-11-27T22:29:57.635Z,67.10
2018-11-27T22:32:00.572Z,67.10
2018-11-27T22:34:05.008Z,67.30
2018-11-27T22:36:08.812Z,67.30
2018-11-27T22:38:12.529Z,67.40
2018-11-27T22:40:16.225Z,67.30
2018-11-27T22:42:20.057Z,67.40
2018-11-27T22:44:22.994Z,67.30
2018-11-27T22:46:26.687Z,66.80
2018-11-27T22:48:30.416Z,67.50
2018-11-27T22:50:33.356Z,67.50
2018-11-27T22:52:36.280Z,67.50
2018-11-27T22:54:40.080Z,67.60
2018-11-27T22:56:43.882Z,67.60
2018-11-27T22:58:46.888Z,67.60
2018-11-27T23:00:49.950Z,67.60
2018-11-27T23:02:52.908Z,67.60
2018-11-27T23:04:55.836Z,67.70
2018-11-27T23:06:58.902Z,67.80
2018-11-27T23:09:02.621Z,67.80
2018-11-27T23:11:05.683Z,67.80
2018-11-27T23:13:09.389Z,67.90
2018-11-27T23:15:13.104Z,68.00
2018-11-27T23:17:16.189Z,67.80
2018-11-27T23:19:19.112Z,67.80
2018-11-27T23:21:22.136Z,67.90
2018-11-27T23:23:25.105Z,67.90
2018-11-27T23:25:28.817Z,68.00
2018-11-27T23:27:32.623Z,68.00
2018-11-27T23:29:36.376Z,68.00
2018-11-27T23:31:39.313Z,67.90
2018-11-27T23:33:42.249Z,67.90
2018-11-27T23:35:45.204Z,67.90
2018-11-27T23:37:48.264Z,68.00
2018-11-27T23:39:52.036Z,68.10
2018-11-27T23:41:55.856Z,68.80
2018-11-27T23:44:00.088Z,68.20
2018-11-27T23:46:03.023Z,68.00
2018-11-27T23:48:05.995Z,68.00
2018-11-27T23:50:09.036Z,68.10
2018-11-27T23:52:11.965Z,68.20
2018-11-27T23:54:14.943Z,68.10
2018-11-27T23:56:17.884Z,68.10
2018-11-27T23:58:20.863Z,68.20
